Time;durP1;ratioP1;P1;durP2;ratioP2;P2;SDS_P1;SDS_P2;PMS_P1;PMS_P2;Temp;Humidity;BMP_temperature;BMP_pressure;BME280_temperature;BME280_humidity;BME280_pressure;Samples;Min_cycle;Max_cycle;Signal;HPM_P1;HPM_P2
2022/03/02 00:01:16;;;;;;;;;;;;;;;5.55;70.21;100821.97;5015357;28;20332;-66
2022/03/02 00:04:00;;;;;;;;;;;;;;;5.55;69.71;100818.50;5015683;28;19925;-65
2022/03/02 00:06:44;;;;;;;;;;;;;;;5.55;69.82;100815.94;5015011;28;20460;-65
2022/03/02 00:09:29;;;;;;;;;;;;;;;5.54;69.69;100809.03;5016490;28;20384;-65
2022/03/02 00:12:13;;;;;;;;;;;;;;;5.55;69.81;100810.78;5015683;28;19923;-66
2022/03/02 00:14:57;;;;;;;;;;;;;;;5.54;70.26;100814.16;5015953;28;19967;-64
2022/03/02 00:17:41;;;;;;;;;;;;;;;5.54;69.71;100812.50;5015113;28;19924;-65
2022/03/02 00:20:25;;;;;;;;;;;;;;;5.54;69.65;100807.34;5015478;28;19924;-65
2022/03/02 00:23:09;;;;;;;;;;;;;;;5.54;70.07;100804.78;5016402;28;19924;-65
2022/03/02 00:25:53;;;;;;;;;;;;;;;5.53;69.55;100807.28;5016130;28;19924;-65
2022/03/02 00:28:36;;;;;;;;;;;;;;;5.50;69.22;100802.84;5016129;28;19943;-66
2022/03/02 00:31:20;;;;;;;;;;;;;;;5.49;69.20;100803.66;5016138;28;20026;-65
2022/03/02 00:34:04;;;;;;;;;;;;;;;5.46;69.17;100788.97;5015873;28;19940;-67
2022/03/02 00:36:48;;;;;;;;;;;;;;;5.45;68.83;100796.63;5016134;28;19940;-65
2022/03/02 00:39:32;;;;;;;;;;;;;;;5.44;69.01;100793.16;5016338;28;19924;-64
2022/03/02 00:42:17;;;;;;;;;;;;;;;5.43;69.43;100800.81;5015917;28;20387;-65
2022/03/02 00:45:01;;;;;;;;;;;;;;;5.42;68.97;100792.19;5015800;28;20292;-66
2022/03/02 00:47:45;;;;;;;;;;;;;;;5.42;68.90;100793.91;5015538;28;19972;-66
2022/03/02 00:50:30;;;;;;;;;;;;;;;5.41;68.66;100789.56;5014571;28;19924;-66
2022/03/02 00:53:14;;;;;;;;;;;;;;;5.41;68.72;100792.13;5014849;28;20281;-66
2022/03/02 00:55:58;;;;;;;;;;;;;;;5.40;68.61;100792.94;5015533;28;19925;-65
2022/03/02 00:58:42;;;;;;;;;;;;;;;5.40;68.99;100783.53;5015080;28;20002;-65
2022/03/02 01:01:26;;;;;;;;;;;;;;;5.40;68.44;100785.22;5015774;28;19928;-65
2022/03/02 01:04:10;;;;;;;;;;;;;;;5.39;68.34;100780.91;5015072;28;19996;-65
2022/03/02 01:06:53;;;;;;;;;;;;;;;5.39;68.64;100786.03;5015343;28;20387;-65
2022/03/02 01:09:37;;;;;;;;;;;;;;;5.39;68.55;100779.19;5015341;28;19924;-66
2022/03/02 01:12:21;;;;;;;;;;;;;;;5.39;68.53;100775.75;5015128;28;19923;-65
2022/03/02 01:15:06;;;;;;;;;;;;;;;5.39;68.92;100768.91;5015086;28;20006;-65
2022/03/02 01:17:50;;;;;;;;;;;;;;;5.39;68.58;100768.91;5015484;28;19923;-65
2022/03/02 01:20:34;;;;;;;;;;;;;;;5.39;68.56;100776.63;5015045;28;19948;-65
2022/03/02 01:23:17;;;;;;;;;;;;;;;5.37;68.44;100773.13;5013677;28;20336;-66
2022/03/02 01:26:02;;;;;;;;;;;;;;;5.39;68.29;100775.75;5014406;28;19956;-66
2022/03/02 01:28:45;;;;;;;;;;;;;;;5.40;68.59;100764.66;5013957;28;20371;-65
2022/03/02 01:31:29;;;;;;;;;;;;;;;5.41;68.33;100777.56;5015036;28;19963;-65
2022/03/02 01:34:13;;;;;;;;;;;;;;;5.40;68.64;100762.97;5014828;28;20293;-66
2022/03/02 01:36:57;;;;;;;;;;;;;;;5.43;68.54;100767.38;5014403;28;19939;-65
2022/03/02 01:39:42;;;;;;;;;;;;;;;5.46;69.14;100764.94;5014334;28;20317;-65
2022/03/02 01:42:26;;;;;;;;;;;;;;;5.48;68.90;100756.50;5014506;28;19987;-65
2022/03/02 01:45:11;;;;;;;;;;;;;;;5.51;68.97;100757.47;5014024;28;20008;-67
2022/03/02 01:47:59;;;;;;;;;;;;;;;5.51;69.08;100753.19;5013323;28;20012;-65
2022/03/02 01:50:43;;;;;;;;;;;;;;;5.52;68.97;100751.53;5013706;28;20004;-65
2022/03/02 01:53:27;;;;;;;;;;;;;;;5.51;69.48;100739.47;5014401;28;19925;-65
2022/03/02 01:56:11;;;;;;;;;;;;;;;5.49;69.06;100740.28;5013591;28;19924;-66
2022/03/02 01:58:55;;;;;;;;;;;;;;;5.49;68.72;100735.13;5014659;28;19924;-65
2022/03/02 02:01:39;;;;;;;;;;;;;;;5.48;69.21;100729.91;5014809;28;20078;-65
2022/03/02 02:04:23;;;;;;;;;;;;;;;5.48;68.83;100728.22;5014352;28;20316;-65
2022/03/02 02:07:07;;;;;;;;;;;;;;;5.46;69.10;100722.13;5014376;28;19928;-65
2022/03/02 02:09:52;;;;;;;;;;;;;;;5.47;69.11;100717.84;5014329;28;20327;-66
2022/03/02 02:12:36;;;;;;;;;;;;;;;5.47;68.89;100713.59;5013602;28;19936;-65
2022/03/02 02:15:21;;;;;;;;;;;;;;;5.48;69.12;100715.38;5013003;28;19924;-65
2022/03/02 02:18:05;;;;;;;;;;;;;;;5.48;69.36;100710.22;5014166;28;20019;-65
2022/03/02 02:20:49;;;;;;;;;;;;;;;5.49;68.84;100709.44;5013728;28;19971;-65
2022/03/02 02:23:37;;;;;;;;;;;;;;;5.49;69.13;100717.13;5014198;28;20387;-65
2022/03/02 02:26:21;;;;;;;;;;;;;;;5.51;69.28;100713.75;5013209;28;19924;-65
2022/03/02 02:29:05;;;;;;;;;;;;;;;5.49;69.11;100719.72;5013429;28;19924;-65
2022/03/02 02:31:49;;;;;;;;;;;;;;;5.47;68.99;100716.19;5013250;28;19924;-65
2022/03/02 02:34:33;;;;;;;;;;;;;;;5.47;69.39;100717.84;5014181;28;19963;-65
2022/03/02 02:37:17;;;;;;;;;;;;;;;5.48;69.00;100709.34;5014113;28;19924;-66
2022/03/02 02:40:04;;;;;;;;;;;;;;;5.49;69.49;100701.72;5013934;28;20276;-66
2022/03/02 02:42:50;;;;;;;;;;;;;;;5.51;69.12;100709.47;5013451;28;19924;-65
2022/03/02 02:45:34;;;;;;;;;;;;;;;5.51;69.58;100708.63;5013386;28;20284;-65
2022/03/02 02:48:19;;;;;;;;;;;;;;;5.52;69.70;100712.94;5014066;28;20268;-65
2022/03/02 02:51:02;;;;;;;;;;;;;;;5.52;69.77;100713.81;5017280;28;19932;-65
2022/03/02 02:53:46;;;;;;;;;;;;;;;5.52;69.80;100711.25;5017487;28;20060;-65
2022/03/02 02:56:30;;;;;;;;;;;;;;;5.52;69.77;100707.81;5017644;28;20300;-66
2022/03/02 02:59:14;;;;;;;;;;;;;;;5.51;69.16;100709.47;5017655;28;19924;-66
2022/03/02 03:01:58;;;;;;;;;;;;;;;5.51;69.26;100708.63;5017823;28;19971;-65
2022/03/02 03:04:42;;;;;;;;;;;;;;;5.52;69.46;100707.81;5016286;28;19993;-65
2022/03/02 03:07:25;;;;;;;;;;;;;;;5.51;69.58;100706.03;5016494;28;19972;-65
2022/03/02 03:10:10;;;;;;;;;;;;;;;5.50;69.54;100705.16;5016100;28;19968;-65
2022/03/02 03:12:54;;;;;;;;;;;;;;;5.50;69.56;100710.28;5016845;28;19933;-66
2022/03/02 03:15:39;;;;;;;;;;;;;;;5.51;69.63;100711.19;5017427;28;19924;-66
2022/03/02 03:18:22;;;;;;;;;;;;;;;5.50;69.58;100710.28;5017678;28;19924;-65
2022/03/02 03:21:06;;;;;;;;;;;;;;;5.48;69.45;100712.81;5016987;28;19971;-65
2022/03/02 03:23:50;;;;;;;;;;;;;;;5.48;69.77;100707.66;5017263;28;20324;-65
2022/03/02 03:26:34;;;;;;;;;;;;;;;5.48;69.57;100699.94;5016547;28;19924;-66
2022/03/02 03:29:18;;;;;;;;;;;;;;;5.49;69.93;100694.00;5017199;28;20008;-65
2022/03/02 03:32:02;;;;;;;;;;;;;;;5.49;69.73;100701.72;5016991;28;20305;-65
2022/03/02 03:34:46;;;;;;;;;;;;;;;5.49;69.75;100696.56;5017037;28;19925;-66
2022/03/02 03:37:30;;;;;;;;;;;;;;;5.51;69.97;100703.47;5017174;28;19924;-65
2022/03/02 03:40:14;;;;;;;;;;;;;;;5.51;69.46;100698.34;5016848;28;19924;-65
2022/03/02 03:42:58;;;;;;;;;;;;;;;5.52;69.90;100698.38;5017002;28;19924;-65
2022/03/02 03:45:42;;;;;;;;;;;;;;;5.52;69.71;100695.81;5016759;28;19963;-65
2022/03/02 03:48:26;;;;;;;;;;;;;;;5.51;69.79;100690.63;5016896;28;19967;-65
2022/03/02 03:51:10;;;;;;;;;;;;;;;5.51;69.81;100688.06;5016583;28;19924;-65
2022/03/02 03:53:54;;;;;;;;;;;;;;;5.50;69.80;100689.72;5016644;28;19924;-65
2022/03/02 03:56:38;;;;;;;;;;;;;;;5.49;69.54;100688.84;5016791;28;20050;-65
2022/03/02 03:59:22;;;;;;;;;;;;;;;5.49;69.59;100690.53;5016546;28;19976;-65
2022/03/02 04:02:06;;;;;;;;;;;;;;;5.48;69.64;100688.75;5015788;28;19928;-65
2022/03/02 04:04:50;;;;;;;;;;;;;;;5.49;69.56;100696.56;5016534;28;20051;-65
2022/03/02 04:07:34;;;;;;;;;;;;;;;5.49;69.83;100699.13;5016038;28;19970;-66
2022/03/02 04:10:18;;;;;;;;;;;;;;;5.49;70.63;100700.81;5016453;28;19925;-65
2022/03/02 04:13:02;;;;;;;;;;;;;;;5.48;70.51;100694.81;5016180;28;19970;-65
2022/03/02 04:15:47;;;;;;;;;;;;;;;5.49;70.19;100690.53;5016369;28;19979;-65
2022/03/02 04:18:34;;;;;;;;;;;;;;;5.50;69.83;100687.16;5015360;28;19944;-65
2022/03/02 04:21:18;;;;;;;;;;;;;;;5.49;69.71;100686.28;5015304;28;20059;-66
2022/03/02 04:24:02;;;;;;;;;;;;;;;5.49;70.07;100673.44;5016534;28;20383;-65
2022/03/02 04:26:46;;;;;;;;;;;;;;;5.47;70.08;100677.63;5016039;28;19940;-65
2022/03/02 04:29:29;;;;;;;;;;;;;;;5.48;70.21;100670.75;5016510;28;20055;-65
2022/03/02 04:32:13;;;;;;;;;;;;;;;5.47;70.19;100682.75;5015943;28;19924;-65
2022/03/02 04:34:57;;;;;;;;;;;;;;;5.46;70.38;100668.13;5015558;28;19971;-65
2022/03/02 04:37:41;;;;;;;;;;;;;;;5.44;69.72;100669.75;5016202;28;19971;-64
2022/03/02 04:40:25;;;;;;;;;;;;;;;5.43;70.06;100667.97;5014884;28;19963;-65
2022/03/02 04:43:09;;;;;;;;;;;;;;;5.42;70.08;100671.38;5015941;28;19926;-65
2022/03/02 04:45:53;;;;;;;;;;;;;;;5.42;70.05;100671.38;5015801;28;20342;-65
2022/03/02 04:48:37;;;;;;;;;;;;;;;5.41;70.15;100676.44;5014534;28;19926;-65
2022/03/02 04:51:21;;;;;;;;;;;;;;;5.41;69.82;100664.47;5015975;28;20063;-65
2022/03/02 04:54:06;;;;;;;;;;;;;;;5.40;69.56;100654.97;5015660;28;20304;-65
2022/03/02 04:56:50;;;;;;;;;;;;;;;5.41;69.92;100650.75;5014738;28;19924;-65
2022/03/02 04:59:34;;;;;;;;;;;;;;;5.38;69.96;100659.16;5015534;28;20329;-65
2022/03/02 05:02:18;;;;;;;;;;;;;;;5.38;69.49;100648.03;5015574;28;19944;-65
2022/03/02 05:05:02;;;;;;;;;;;;;;;5.37;69.43;100647.16;5015430;28;19925;-65
2022/03/02 05:07:47;;;;;;;;;;;;;;;5.38;69.54;100654.03;5014890;28;19963;-65
2022/03/02 05:10:31;;;;;;;;;;;;;;;5.38;69.68;100656.59;5015321;28;19984;-66
2022/03/02 05:13:15;;;;;;;;;;;;;;;5.39;69.71;100654.91;5013588;28;19987;-66
2022/03/02 05:15:59;;;;;;;;;;;;;;;5.40;70.68;100647.28;5015489;28;19959;-65
2022/03/02 05:18:44;;;;;;;;;;;;;;;5.40;70.46;100644.69;5014765;28;19929;-66
2022/03/02 05:21:28;;;;;;;;;;;;;;;5.41;70.16;100643.03;5015550;28;19968;-66
2022/03/02 05:24:12;;;;;;;;;;;;;;;5.39;69.70;100640.38;5014954;28;19947;-65
2022/03/02 05:26:56;;;;;;;;;;;;;;;5.39;69.80;100642.06;5014799;28;19925;-66
2022/03/02 05:29:40;;;;;;;;;;;;;;;5.38;70.00;100638.59;5015018;28;20392;-65
2022/03/02 05:32:24;;;;;;;;;;;;;;;5.39;70.22;100642.94;5013986;28;19924;-65
2022/03/02 05:35:08;;;;;;;;;;;;;;;5.38;69.90;100636.03;5014422;28;19924;-66
2022/03/02 05:37:52;;;;;;;;;;;;;;;5.38;69.92;100635.16;5014593;28;20399;-65
2022/03/02 05:40:36;;;;;;;;;;;;;;;5.37;69.59;100634.31;5014787;28;19963;-65
2022/03/02 05:43:20;;;;;;;;;;;;;;;5.36;69.86;100637.69;5014421;28;20024;-65
2022/03/02 05:46:04;;;;;;;;;;;;;;;5.38;70.37;100640.31;5014984;28;19931;-65
2022/03/02 05:48:50;;;;;;;;;;;;;;;5.38;69.86;100637.75;5014299;28;19944;-66
2022/03/02 05:51:35;;;;;;;;;;;;;;;5.39;70.47;100631.78;5015043;28;20320;-65
2022/03/02 05:54:19;;;;;;;;;;;;;;;5.40;70.46;100633.56;5013702;28;20288;-66
2022/03/02 05:57:03;;;;;;;;;;;;;;;5.38;69.88;100628.31;5014683;28;19924;-65
2022/03/02 05:59:47;;;;;;;;;;;;;;;5.37;69.82;100630.84;5014337;28;20320;-66
2022/03/02 06:02:31;;;;;;;;;;;;;;;5.37;69.89;100625.69;5013284;28;19964;-65
2022/03/02 06:05:15;;;;;;;;;;;;;;;5.37;70.32;100630.84;5014142;28;19924;-65
2022/03/02 06:07:58;;;;;;;;;;;;;;;5.37;69.97;100625.69;5013891;28;20382;-65
2022/03/02 06:10:43;;;;;;;;;;;;;;;5.37;69.99;100625.69;5014208;28;20344;-66
2022/03/02 06:13:27;;;;;;;;;;;;;;;5.38;70.27;100624.88;5014182;28;20406;-66
2022/03/02 06:16:11;;;;;;;;;;;;;;;5.37;70.48;100626.59;5013894;28;19924;-65
2022/03/02 06:18:55;;;;;;;;;;;;;;;5.37;70.29;100621.44;5014307;28;20039;-66
2022/03/02 06:21:40;;;;;;;;;;;;;;;5.37;71.00;100620.56;5013805;28;19987;-65
2022/03/02 06:24:24;;;;;;;;;;;;;;;5.36;70.51;100621.34;5013176;28;20429;-66
2022/03/02 06:27:08;;;;;;;;;;;;;;;5.36;70.86;100623.94;5013001;28;19923;-65
2022/03/02 06:29:52;;;;;;;;;;;;;;;5.37;70.34;100631.72;5014221;28;19925;-65
2022/03/02 06:32:36;;;;;;;;;;;;;;;5.35;70.15;100625.63;5013994;28;19923;-65
2022/03/02 06:35:19;;;;;;;;;;;;;;;5.35;70.44;100623.06;5013574;28;19924;-65
2022/03/02 06:38:04;;;;;;;;;;;;;;;5.35;70.52;100623.06;5013976;28;19924;-66
2022/03/02 06:41:09;;;;;;;;;;;;;;;5.34;70.26;100617.03;5013610;28;19924;-65
2022/03/02 06:44:03;;;;;;;;;;;;;;;5.33;70.26;100622.09;5014332;28;19925;-65
2022/03/02 06:46:55;;;;;;;;;;;;;;;5.31;70.39;100619.44;5013751;28;19927;-65
2022/03/02 06:49:49;;;;;;;;;;;;;;;5.32;70.52;100626.34;5013476;28;19924;-65
2022/03/02 06:52:41;;;;;;;;;;;;;;;5.32;70.53;100622.91;5013448;28;20297;-66
2022/03/02 06:55:26;;;;;;;;;;;;;;;5.34;70.46;100626.44;5012747;28;19924;-65
2022/03/02 06:58:12;;;;;;;;;;;;;;;5.34;70.55;100631.59;5013517;28;19923;-65
2022/03/02 07:00:56;;;;;;;;;;;;;;;5.34;70.09;100624.72;5012660;28;19968;-65
2022/03/02 07:03:46;;;;;;;;;;;;;;;5.34;71.00;100627.31;5013638;28;20016;-66
2022/03/02 07:06:30;;;;;;;;;;;;;;;5.35;70.36;100620.50;5013077;28;20272;-65
2022/03/02 07:09:15;;;;;;;;;;;;;;;5.34;70.69;100623.88;5012294;28;19924;-66
2022/03/02 07:12:00;;;;;;;;;;;;;;;5.33;70.35;100612.69;5013956;28;19971;-64
2022/03/02 07:14:45;;;;;;;;;;;;;;;5.35;70.41;100620.50;5014015;28;20399;-65
2022/03/02 07:17:32;;;;;;;;;;;;;;;5.35;70.30;100620.50;5013592;28;19924;-66
2022/03/02 07:20:16;;;;;;;;;;;;;;;5.34;70.60;100617.03;5013529;28;20384;-66
2022/03/02 07:23:00;;;;;;;;;;;;;;;5.34;70.61;100626.44;5013344;28;19924;-65
2022/03/02 07:25:44;;;;;;;;;;;;;;;5.34;70.60;100618.72;5013539;28;19924;-65
2022/03/02 07:28:29;;;;;;;;;;;;;;;5.34;70.78;100616.16;5013363;28;20296;-65
2022/03/02 07:31:13;;;;;;;;;;;;;;;5.34;70.76;100616.16;5012758;28;19925;-65
2022/03/02 07:33:59;;;;;;;;;;;;;;;5.34;70.71;100621.31;5012167;28;19987;-65
2022/03/02 07:36:43;;;;;;;;;;;;;;;5.34;70.96;100613.59;5013798;28;19936;-65
2022/03/02 07:39:28;;;;;;;;;;;;;;;5.34;70.43;100608.44;5017190;28;19928;-65
2022/03/02 07:42:12;;;;;;;;;;;;;;;5.33;71.11;100611.81;5015929;28;20396;-64
2022/03/02 07:44:56;;;;;;;;;;;;;;;5.33;70.36;100606.69;5017027;28;19924;-65
2022/03/02 07:47:40;;;;;;;;;;;;;;;5.32;70.61;100618.63;5015573;28;19924;-66
2022/03/02 07:50:25;;;;;;;;;;;;;;;5.31;70.37;100610.88;5015929;28;20427;-65
2022/03/02 07:53:13;;;;;;;;;;;;;;;5.32;70.44;100613.50;5016135;28;19963;-65
2022/03/02 07:55:57;;;;;;;;;;;;;;;5.32;70.87;100616.06;5017190;28;19931;-65
2022/03/02 07:58:41;;;;;;;;;;;;;;;5.33;71.11;100607.56;5016644;28;19925;-65
2022/03/02 08:01:26;;;;;;;;;;;;;;;5.34;70.59;100613.59;5015491;28;19924;-65
2022/03/02 08:04:10;;;;;;;;;;;;;;;5.33;71.24;100616.97;5015283;28;19970;-65
2022/03/02 08:06:54;;;;;;;;;;;;;;;5.33;70.46;100617.81;5016367;28;20418;-65
2022/03/02 08:09:39;;;;;;;;;;;;;;;5.33;70.56;100616.97;5016454;28;20468;-65
2022/03/02 08:12:26;;;;;;;;;;;;;;;5.34;70.69;100618.72;5016543;28;20434;-66
2022/03/02 08:15:10;;;;;;;;;;;;;;;5.36;70.52;100617.13;5016090;28;19940;-65
2022/03/02 08:17:54;;;;;;;;;;;;;;;5.35;70.67;100625.63;5016400;28;20379;-65
2022/03/02 08:20:44;;;;;;;;;;;;;;;5.35;71.11;100620.50;5016361;28;20013;-66
2022/03/02 08:23:33;;;;;;;;;;;;;;;5.34;70.51;100627.31;5015630;28;19924;-65
2022/03/02 08:26:18;;;;;;;;;;;;;;;5.33;70.78;100622.97;5016077;28;19928;-66
2022/03/02 08:29:04;;;;;;;;;;;;;;;5.32;70.84;100621.22;5015101;28;20336;-65
2022/03/02 08:31:49;;;;;;;;;;;;;;;5.33;70.91;100624.69;5015433;28;19924;-66
2022/03/02 08:34:33;;;;;;;;;;;;;;;5.33;70.99;100628.13;5016405;28;19980;-65
2022/03/02 08:37:18;;;;;;;;;;;;;;;5.33;70.54;100627.25;5015268;28;19932;-65
2022/03/02 08:40:03;;;;;;;;;;;;;;;5.32;70.37;100626.34;5014982;28;20283;-64
2022/03/02 08:42:49;;;;;;;;;;;;;;;5.33;71.00;100629.81;5016204;28;19928;-65
2022/03/02 08:45:33;;;;;;;;;;;;;;;5.33;71.02;100619.53;5015371;28;19925;-65
2022/03/02 08:48:19;;;;;;;;;;;;;;;5.34;70.60;100623.88;5015230;28;20058;-64
2022/03/02 08:51:04;;;;;;;;;;;;;;;5.35;70.91;100620.50;5014662;28;19939;-65
2022/03/02 08:53:52;;;;;;;;;;;;;;;5.36;70.76;100611.97;5015025;28;19924;-65
2022/03/02 08:56:38;;;;;;;;;;;;;;;5.37;71.32;100613.75;5014947;28;19975;-65
2022/03/02 08:59:24;;;;;;;;;;;;;;;5.37;71.19;100613.75;5014858;28;19956;-65
2022/03/02 09:02:08;;;;;;;;;;;;;;;5.38;70.73;100610.31;5014419;28;20343;-66
2022/03/02 09:04:53;;;;;;;;;;;;;;;5.39;71.06;100611.22;5015221;28;19965;-64
2022/03/02 09:07:37;;;;;;;;;;;;;;;5.39;71.33;100604.38;5014887;28;19947;-64
2022/03/02 09:10:22;;;;;;;;;;;;;;;5.40;70.96;100603.56;5014951;28;20073;-65
2022/03/02 09:13:07;;;;;;;;;;;;;;;5.42;70.92;100606.22;5014804;28;19944;-64
2022/03/02 09:15:51;;;;;;;;;;;;;;;5.42;70.82;100601.09;5014668;28;20419;-65
2022/03/02 09:18:35;;;;;;;;;;;;;;;5.43;71.10;100597.72;5015178;28;19970;-65
2022/03/02 09:21:20;;;;;;;;;;;;;;;5.43;71.11;100606.28;5015231;28;19931;-65
2022/03/02 09:24:05;;;;;;;;;;;;;;;5.45;71.26;100603.81;5014866;28;19960;-65
2022/03/02 09:26:50;;;;;;;;;;;;;;;5.44;71.06;100602.91;5014315;28;20435;-65
2022/03/02 09:29:36;;;;;;;;;;;;;;;5.46;71.16;100600.41;5014429;28;20307;-65
2022/03/02 09:32:22;;;;;;;;;;;;;;;5.46;71.14;100595.25;5014512;28;19924;-64
2022/03/02 09:35:10;;;;;;;;;;;;;;;5.47;71.13;100589.28;5014868;28;20388;-64
2022/03/02 09:37:56;;;;;;;;;;;;;;;5.46;70.98;100591.00;5013475;28;19978;-65
2022/03/02 09:40:43;;;;;;;;;;;;;;;5.47;71.01;100585.06;5015233;28;19964;-65
2022/03/02 09:43:30;;;;;;;;;;;;;;;5.47;71.74;100585.06;5013676;28;19927;-65
2022/03/02 09:46:17;;;;;;;;;;;;;;;5.48;70.96;100580.78;5014598;28;19976;-65
2022/03/02 09:49:08;;;;;;;;;;;;;;;5.48;71.13;100573.06;5014566;28;20331;-65
2022/03/02 09:51:58;;;;;;;;;;;;;;;5.47;71.38;100561.91;5013908;28;20016;-64
2022/03/02 09:54:43;;;;;;;;;;;;;;;5.48;71.42;100562.78;5014261;28;19924;-64
2022/03/02 09:57:28;;;;;;;;;;;;;;;5.49;71.02;100551.69;5014990;28;20399;-65
2022/03/02 10:00:12;;;;;;;;;;;;;;;5.48;71.74;100555.97;5014089;28;19924;-65
2022/03/02 10:02:58;;;;;;;;;;;;;;;5.49;71.22;100562.88;5013802;28;19932;-65
2022/03/02 10:05:44;;;;;;;;;;;;;;;5.50;71.25;100563.72;5013282;28;19924;-65
2022/03/02 10:08:31;;;;;;;;;;;;;;;5.51;71.01;100562.06;5013131;28;20288;-65
2022/03/02 10:11:18;;;;;;;;;;;;;;;5.51;71.02;100554.34;5013890;28;19963;-65
2022/03/02 10:14:02;;;;;;;;;;;;;;;5.52;71.24;100563.81;5014400;28;19995;-65
2022/03/02 10:16:47;;;;;;;;;;;;;;;5.52;71.50;100558.69;5014540;28;20391;-65
2022/03/02 10:19:33;;;;;;;;;;;;;;;5.52;71.02;100567.25;5012838;28;19924;-65
2022/03/02 10:22:23;;;;;;;;;;;;;;;5.53;71.69;100563.00;5014447;28;19928;-64
2022/03/02 10:25:08;;;;;;;;;;;;;;;5.53;71.12;100561.31;5013308;28;20023;-65
2022/03/02 10:28:05;;;;;;;;;;;;;;;5.54;71.16;100554.47;5012880;28;20024;-66
2022/03/02 10:30:58;;;;;;;;;;;;;;;5.55;71.10;100554.53;5012970;28;19947;-64
2022/03/02 10:33:46;;;;;;;;;;;;;;;5.55;71.17;100549.41;5013846;28;19925;-65
2022/03/02 10:36:30;;;;;;;;;;;;;;;5.56;71.43;100551.16;5013702;28;19970;-65
2022/03/02 10:39:34;;;;;;;;;;;;;;;5.57;71.56;100546.88;5014314;28;20412;-64
2022/03/02 10:42:23;;;;;;;;;;;;;;;5.56;71.27;100543.44;5012651;28;20435;-65
2022/03/02 10:45:21;;;;;;;;;;;;;;;5.56;71.52;100543.44;5013004;28;20360;-64
2022/03/02 10:48:08;;;;;;;;;;;;;;;5.56;71.84;100540.88;5013809;28;19924;-65
2022/03/02 10:50:56;;;;;;;;;;;;;;;5.57;71.42;100542.63;5013733;28;20312;-64
2022/03/02 10:53:40;;;;;;;;;;;;;;;5.55;71.19;100536.53;5013851;28;20288;-66
2022/03/02 10:56:27;;;;;;;;;;;;;;;5.57;71.52;100542.63;5012957;28;20335;-65
2022/03/02 10:59:16;;;;;;;;;;;;;;;5.58;71.59;100541.84;5013901;28;20332;-65
2022/03/02 11:02:01;;;;;;;;;;;;;;;5.60;71.07;100545.34;5014065;28;20348;-65
2022/03/02 11:04:46;;;;;;;;;;;;;;;5.61;71.43;100541.94;5012870;28;19971;-64
2022/03/02 11:07:30;;;;;;;;;;;;;;;5.62;71.23;100540.25;5013261;28;19924;-64
2022/03/02 11:10:16;;;;;;;;;;;;;;;5.63;71.46;100544.59;5013105;28;19924;-65
2022/03/02 11:13:02;;;;;;;;;;;;;;;5.64;71.70;100547.22;5015684;28;19970;-64
2022/03/02 11:15:49;;;;;;;;;;;;;;;5.67;71.30;100540.47;5016458;28;19940;-65
2022/03/02 11:18:33;;;;;;;;;;;;;;;5.67;71.09;100541.34;5016884;28;19924;-65
2022/03/02 11:21:20;;;;;;;;;;;;;;;5.68;71.05;100543.13;5017565;28;20388;-64
2022/03/02 11:24:05;;;;;;;;;;;;;;;5.70;71.32;100554.31;5016314;28;19987;-65
2022/03/02 11:26:49;;;;;;;;;;;;;;;5.70;71.40;100543.16;5016503;28;19925;-65
2022/03/02 11:29:33;;;;;;;;;;;;;;;5.72;71.27;100531.25;5017274;28;20284;-65
2022/03/02 11:32:17;;;;;;;;;;;;;;;5.72;71.45;100532.13;5017227;28;20356;-64
2022/03/02 11:35:03;;;;;;;;;;;;;;;5.75;71.42;100531.41;5016092;28;19966;-64
2022/03/02 11:37:56;;;;;;;;;;;;;;;5.74;71.61;100524.50;5016129;28;20403;-64
2022/03/02 11:40:43;;;;;;;;;;;;;;;5.75;71.66;100519.41;5016123;28;20303;-65
2022/03/02 11:43:29;;;;;;;;;;;;;;;5.77;71.44;100516.88;5016079;28;19928;-64
2022/03/02 11:46:15;;;;;;;;;;;;;;;5.77;71.64;100514.31;5016954;28;19940;-64
2022/03/02 11:49:04;;;;;;;;;;;;;;;5.78;71.74;100514.41;5016984;28;20327;-64
2022/03/02 11:52:14;;;;;;;;;;;;;;;5.78;71.44;100506.69;5017180;28;19928;-65
2022/03/02 11:55:12;;;;;;;;;;;;;;;5.81;71.59;100502.50;5006153;28;20444;-65
2022/03/02 11:57:55;;;;;;;;;;;;;;;5.81;71.03;100502.50;5016172;28;19971;-65
2022/03/02 12:00:39;;;;;;;;;;;;;;;5.81;71.12;100498.22;5016550;28;20430;-64
2022/03/02 12:03:23;;;;;;;;;;;;;;;5.84;71.54;100502.63;5016605;28;20007;-65
2022/03/02 12:06:07;;;;;;;;;;;;;;;5.83;71.58;100494.00;5016174;28;20414;-64
2022/03/02 12:08:53;;;;;;;;;;;;;;;5.86;71.04;100485.53;5016400;28;19963;-65
2022/03/02 12:11:38;;;;;;;;;;;;;;;5.86;71.22;100480.38;5015913;28;20070;-64
2022/03/02 12:14:22;;;;;;;;;;;;;;;5.86;71.52;100480.38;5015341;28;19924;-65
2022/03/02 12:17:12;;;;;;;;;;;;;;;5.86;71.02;100471.00;5016538;28;19924;-65
2022/03/02 12:20:09;;;;;;;;;;;;;;;5.86;71.09;100473.56;5015940;28;19923;-65
2022/03/02 12:22:55;;;;;;;;;;;;;;;5.86;71.76;100467.53;5015108;28;19923;-64
2022/03/02 12:25:43;;;;;;;;;;;;;;;5.89;71.31;100467.66;5016653;28;19924;-65
2022/03/02 12:28:27;;;;;;;;;;;;;;;5.88;71.44;100466.78;5015273;28;19972;-65
2022/03/02 12:31:12;;;;;;;;;;;;;;;5.88;71.24;100464.22;5015549;28;19923;-65
2022/03/02 12:34:11;;;;;;;;;;;;;;;5.90;71.48;100464.28;5015491;28;20384;-64
2022/03/02 12:36:55;;;;;;;;;;;;;;;5.89;71.06;100468.56;5015960;28;20028;-65
2022/03/02 12:39:40;;;;;;;;;;;;;;;5.89;71.05;100468.56;5015543;28;19956;-65
2022/03/02 12:42:24;;;;;;;;;;;;;;;5.89;71.03;100468.56;5015199;28;20336;-65
2022/03/02 12:45:09;;;;;;;;;;;;;;;5.91;71.09;100460.88;5016282;28;20312;-65
2022/03/02 12:47:53;;;;;;;;;;;;;;;5.91;71.60;100455.75;5014512;28;19924;-65
2022/03/02 12:50:37;;;;;;;;;;;;;;;5.89;71.47;100450.56;5015849;28;20023;-65
2022/03/02 12:53:21;;;;;;;;;;;;;;;5.93;71.77;100443.81;5015776;28;19967;-65
2022/03/02 12:56:05;;;;;;;;;;;;;;;5.91;71.68;100442.88;5015503;28;19924;-65
2022/03/02 12:58:49;;;;;;;;;;;;;;;5.91;71.48;100446.34;5014508;28;19924;-65
2022/03/02 13:01:33;;;;;;;;;;;;;;;5.91;71.11;100436.06;5015582;28;19925;-65
2022/03/02 13:04:22;;;;;;;;;;;;;;;5.91;71.11;100438.63;5015379;28;19924;-65
2022/03/02 13:07:11;;;;;;;;;;;;;;;5.93;71.01;100436.97;5015063;28;20455;-65
2022/03/02 13:09:56;;;;;;;;;;;;;;;5.94;71.07;100430.16;5015387;28;19924;-65
2022/03/02 13:12:51;;;;;;;;;;;;;;;5.97;71.61;100440.56;5014325;28;19924;-65
2022/03/02 13:15:36;;;;;;;;;;;;;;;5.93;71.64;100426.69;5014880;28;19924;-66
2022/03/02 13:18:20;;;;;;;;;;;;;;;5.93;71.21;100421.53;5015345;28;19924;-64
2022/03/02 13:21:04;;;;;;;;;;;;;;;5.94;71.18;100422.44;5014602;28;19924;-65
2022/03/02 13:24:07;;;;;;;;;;;;;;;5.95;71.07;100419.03;5015009;28;20017;-65
2022/03/02 13:26:57;;;;;;;;;;;;;;;5.95;71.36;100409.63;5014678;28;20016;-66
2022/03/02 13:29:53;;;;;;;;;;;;;;;5.96;71.41;100418.22;5015034;28;19924;-66
2022/03/02 13:32:44;;;;;;;;;;;;;;;5.98;70.98;100410.56;5014968;28;19928;-66
2022/03/02 13:35:31;;;;;;;;;;;;;;;5.98;71.44;100406.31;5012558;28;20428;-65
2022/03/02 13:38:15;;;;;;;;;;;;;;;5.99;71.25;100402.03;5014264;28;19963;-66
2022/03/02 13:40:59;;;;;;;;;;;;;;;5.97;71.19;100399.41;5015300;28;20056;-65
2022/03/02 13:43:43;;;;;;;;;;;;;;;5.96;71.24;100397.66;5014499;28;19925;-65
2022/03/02 13:46:28;;;;;;;;;;;;;;;5.95;71.66;100404.47;5014124;28;19928;-65
2022/03/02 13:49:12;;;;;;;;;;;;;;;5.96;71.66;100400.22;5014482;28;19924;-65
2022/03/02 13:51:56;;;;;;;;;;;;;;;5.95;71.62;100399.31;5014913;28;19980;-65
2022/03/02 13:54:40;;;;;;;;;;;;;;;5.92;71.74;100396.63;5014315;28;19923;-66
2022/03/02 13:57:25;;;;;;;;;;;;;;;5.93;71.05;100394.94;5014903;28;19924;-65
2022/03/02 14:00:18;;;;;;;;;;;;;;;5.92;71.71;100391.47;5014659;28;19924;-65
2022/03/02 14:03:02;;;;;;;;;;;;;;;5.94;71.66;100388.97;5014838;28;19925;-65
2022/03/02 14:05:46;;;;;;;;;;;;;;;5.92;71.62;100385.47;5014667;28;20376;-65
2022/03/02 14:08:40;;;;;;;;;;;;;;;5.92;71.32;100391.47;5014302;28;19925;-65
2022/03/02 14:11:35;;;;;;;;;;;;;;;5.91;70.99;100387.19;5013374;28;20009;-65
2022/03/02 14:14:20;;;;;;;;;;;;;;;5.91;71.65;100382.03;5014224;28;19968;-65
2022/03/02 14:17:04;;;;;;;;;;;;;;;5.93;71.73;100376.94;5014072;28;19924;-65
2022/03/02 14:19:48;;;;;;;;;;;;;;;5.92;71.41;100370.91;5014167;28;19929;-65
2022/03/02 14:22:32;;;;;;;;;;;;;;;5.92;71.74;100377.75;5014315;28;19924;-65